sensor_id;sensor_type;location;lat;lon;timestamp;P1;durP1;ratioP1;P2;durP2;ratioP2
8952;SDS011;4511;50.890;8.054;2023-08-31T00:00:54;9.73;;;8.73;;
8952;SDS011;4511;50.890;8.054;2023-08-31T00:03:20;11.23;;;8.80;;
8952;SDS011;4511;50.890;8.054;2023-08-31T00:05:47;10.77;;;9.67;;
8952;SDS011;4511;50.890;8.054;2023-08-31T00:08:16;12.03;;;9.47;;
8952;SDS011;4511;50.890;8.054;2023-08-31T00:10:43;10.97;;;9.03;;
8952;SDS011;4511;50.890;8.054;2023-08-31T00:13:11;11.90;;;10.23;;
8952;SDS011;4511;50.890;8.054;2023-08-31T00:15:38;11.93;;;9.30;;
8952;SDS011;4511;50.890;8.054;2023-08-31T00:18:06;16.90;;;9.93;;
8952;SDS011;4511;50.890;8.054;2023-08-31T00:20:33;10.40;;;9.37;;
8952;SDS011;4511;50.890;8.054;2023-08-31T00:23:00;11.60;;;9.43;;
8952;SDS011;4511;50.890;8.054;2023-08-31T00:25:27;9.97;;;8.97;;
8952;SDS011;4511;50.890;8.054;2023-08-31T00:27:54;10.43;;;9.17;;
8952;SDS011;4511;50.890;8.054;2023-08-31T00:30:24;12.83;;;9.50;;
8952;SDS011;4511;50.890;8.054;2023-08-31T00:32:53;10.80;;;9.00;;
8952;SDS011;4511;50.890;8.054;2023-08-31T00:35:20;17.73;;;9.43;;
8952;SDS011;4511;50.890;8.054;2023-08-31T00:37:48;11.83;;;9.10;;
8952;SDS011;4511;50.890;8.054;2023-08-31T00:40:16;10.63;;;8.93;;
8952;SDS011;4511;50.890;8.054;2023-08-31T00:42:43;10.87;;;8.60;;
8952;SDS011;4511;50.890;8.054;2023-08-31T00:45:09;13.83;;;9.97;;
8952;SDS011;4511;50.890;8.054;2023-08-31T00:47:39;11.13;;;9.80;;
8952;SDS011;4511;50.890;8.054;2023-08-31T00:50:07;11.57;;;8.73;;
8952;SDS011;4511;50.890;8.054;2023-08-31T00:52:35;17.50;;;9.97;;
8952;SDS011;4511;50.890;8.054;2023-08-31T00:55:03;10.90;;;8.87;;
8952;SDS011;4511;50.890;8.054;2023-08-31T00:57:31;10.40;;;8.63;;
8952;SDS011;4511;50.890;8.054;2023-08-31T00:59:58;10.97;;;8.87;;
8952;SDS011;4511;50.890;8.054;2023-08-31T01:02:34;10.73;;;9.07;;
8952;SDS011;4511;50.890;8.054;2023-08-31T01:05:10;13.40;;;9.23;;
8952;SDS011;4511;50.890;8.054;2023-08-31T01:07:46;11.27;;;9.03;;
8952;SDS011;4511;50.890;8.054;2023-08-31T01:10:21;11.53;;;8.70;;
8952;SDS011;4511;50.890;8.054;2023-08-31T01:12:57;11.43;;;8.33;;
8952;SDS011;4511;50.890;8.054;2023-08-31T01:15:29;14.43;;;9.30;;
8952;SDS011;4511;50.890;8.054;2023-08-31T01:17:59;11.60;;;8.83;;
8952;SDS011;4511;50.890;8.054;2023-08-31T01:20:28;10.50;;;8.67;;
8952;SDS011;4511;50.890;8.054;2023-08-31T01:23:01;11.63;;;8.53;;
8952;SDS011;4511;50.890;8.054;2023-08-31T01:25:32;12.53;;;8.80;;
8952;SDS011;4511;50.890;8.054;2023-08-31T01:28:00;12.70;;;9.53;;
8952;SDS011;4511;50.890;8.054;2023-08-31T01:30:29;13.27;;;9.17;;
8952;SDS011;4511;50.890;8.054;2023-08-31T01:32:56;11.50;;;8.60;;
8952;SDS011;4511;50.890;8.054;2023-08-31T01:35:22;12.73;;;9.47;;
8952;SDS011;4511;50.890;8.054;2023-08-31T01:37:51;12.17;;;10.07;;
8952;SDS011;4511;50.890;8.054;2023-08-31T01:40:23;14.53;;;10.90;;
8952;SDS011;4511;50.890;8.054;2023-08-31T01:42:55;16.97;;;11.20;;
8952;SDS011;4511;50.890;8.054;2023-08-31T01:45:22;16.80;;;11.43;;
8952;SDS011;4511;50.890;8.054;2023-08-31T01:47:50;14.30;;;9.97;;
8952;SDS011;4511;50.890;8.054;2023-08-31T01:50:17;17.47;;;11.07;;
8952;SDS011;4511;50.890;8.054;2023-08-31T01:52:43;15.03;;;9.57;;
8952;SDS011;4511;50.890;8.054;2023-08-31T01:55:10;11.40;;;8.27;;
8952;SDS011;4511;50.890;8.054;2023-08-31T01:57:38;15.63;;;10.90;;
8952;SDS011;4511;50.890;8.054;2023-08-31T02:00:07;12.23;;;9.70;;
8952;SDS011;4511;50.890;8.054;2023-08-31T02:02:35;12.73;;;9.67;;
8952;SDS011;4511;50.890;8.054;2023-08-31T02:05:02;14.27;;;8.73;;
8952;SDS011;4511;50.890;8.054;2023-08-31T02:07:29;13.67;;;8.40;;
8952;SDS011;4511;50.890;8.054;2023-08-31T02:09:56;12.27;;;8.50;;
8952;SDS011;4511;50.890;8.054;2023-08-31T02:12:23;12.87;;;8.37;;
8952;SDS011;4511;50.890;8.054;2023-08-31T02:14:50;13.40;;;8.93;;
8952;SDS011;4511;50.890;8.054;2023-08-31T02:17:18;12.67;;;9.47;;
8952;SDS011;4511;50.890;8.054;2023-08-31T02:19:45;11.13;;;9.03;;
8952;SDS011;4511;50.890;8.054;2023-08-31T02:22:12;9.87;;;7.70;;
8952;SDS011;4511;50.890;8.054;2023-08-31T02:24:39;11.13;;;8.33;;
8952;SDS011;4511;50.890;8.054;2023-08-31T02:27:05;11.67;;;7.17;;
8952;SDS011;4511;50.890;8.054;2023-08-31T02:29:32;12.00;;;7.80;;
8952;SDS011;4511;50.890;8.054;2023-08-31T02:31:59;10.60;;;7.87;;
8952;SDS011;4511;50.890;8.054;2023-08-31T02:34:27;11.47;;;6.73;;
8952;SDS011;4511;50.890;8.054;2023-08-31T02:36:54;13.93;;;7.63;;
8952;SDS011;4511;50.890;8.054;2023-08-31T02:39:20;10.37;;;7.80;;
8952;SDS011;4511;50.890;8.054;2023-08-31T02:41:47;11.63;;;8.07;;
8952;SDS011;4511;50.890;8.054;2023-08-31T02:44:14;11.47;;;8.03;;
8952;SDS011;4511;50.890;8.054;2023-08-31T02:46:41;13.80;;;7.40;;
8952;SDS011;4511;50.890;8.054;2023-08-31T02:49:07;9.63;;;7.40;;
8952;SDS011;4511;50.890;8.054;2023-08-31T02:51:35;10.40;;;7.23;;
8952;SDS011;4511;50.890;8.054;2023-08-31T02:54:02;7.67;;;6.70;;
8952;SDS011;4511;50.890;8.054;2023-08-31T02:56:29;9.63;;;6.33;;
8952;SDS011;4511;50.890;8.054;2023-08-31T02:58:56;8.80;;;6.80;;
8952;SDS011;4511;50.890;8.054;2023-08-31T03:01:23;11.07;;;6.90;;
8952;SDS011;4511;50.890;8.054;2023-08-31T03:03:50;7.53;;;6.40;;
8952;SDS011;4511;50.890;8.054;2023-08-31T03:06:17;7.97;;;6.27;;
8952;SDS011;4511;50.890;8.054;2023-08-31T03:08:45;10.03;;;6.97;;
8952;SDS011;4511;50.890;8.054;2023-08-31T03:11:11;9.37;;;6.53;;
8952;SDS011;4511;50.890;8.054;2023-08-31T03:13:40;8.93;;;6.33;;
8952;SDS011;4511;50.890;8.054;2023-08-31T03:16:07;10.43;;;7.00;;
8952;SDS011;4511;50.890;8.054;2023-08-31T03:18:33;16.47;;;8.40;;
8952;SDS011;4511;50.890;8.054;2023-08-31T03:21:00;10.73;;;7.03;;
8952;SDS011;4511;50.890;8.054;2023-08-31T03:23:28;12.17;;;7.50;;
8952;SDS011;4511;50.890;8.054;2023-08-31T03:25:56;9.97;;;7.43;;
8952;SDS011;4511;50.890;8.054;2023-08-31T03:28:23;9.77;;;6.07;;
8952;SDS011;4511;50.890;8.054;2023-08-31T03:30:54;9.60;;;6.33;;
8952;SDS011;4511;50.890;8.054;2023-08-31T03:33:21;10.23;;;6.17;;
8952;SDS011;4511;50.890;8.054;2023-08-31T03:35:47;9.90;;;6.10;;
8952;SDS011;4511;50.890;8.054;2023-08-31T03:38:14;9.70;;;6.07;;
8952;SDS011;4511;50.890;8.054;2023-08-31T03:40:41;7.27;;;5.60;;
8952;SDS011;4511;50.890;8.054;2023-08-31T03:43:10;8.37;;;6.27;;
8952;SDS011;4511;50.890;8.054;2023-08-31T03:45:37;6.97;;;6.20;;
8952;SDS011;4511;50.890;8.054;2023-08-31T03:48:04;7.07;;;5.70;;
8952;SDS011;4511;50.890;8.054;2023-08-31T03:50:31;8.40;;;6.00;;
8952;SDS011;4511;50.890;8.054;2023-08-31T03:52:57;6.67;;;5.80;;
8952;SDS011;4511;50.890;8.054;2023-08-31T03:55:24;10.67;;;6.47;;
8952;SDS011;4511;50.890;8.054;2023-08-31T03:57:51;10.27;;;5.77;;
8952;SDS011;4511;50.890;8.054;2023-08-31T04:00:19;6.63;;;5.57;;
8952;SDS011;4511;50.890;8.054;2023-08-31T04:02:45;7.10;;;5.40;;
8952;SDS011;4511;50.890;8.054;2023-08-31T04:05:12;9.73;;;5.60;;
8952;SDS011;4511;50.890;8.054;2023-08-31T04:07:40;10.37;;;5.97;;
8952;SDS011;4511;50.890;8.054;2023-08-31T04:10:07;6.97;;;5.40;;
8952;SDS011;4511;50.890;8.054;2023-08-31T04:12:34;8.70;;;5.40;;
8952;SDS011;4511;50.890;8.054;2023-08-31T04:15:01;8.97;;;5.63;;
8952;SDS011;4511;50.890;8.054;2023-08-31T04:17:30;7.20;;;5.50;;
8952;SDS011;4511;50.890;8.054;2023-08-31T04:19:57;8.63;;;5.63;;
8952;SDS011;4511;50.890;8.054;2023-08-31T04:22:24;7.47;;;5.17;;
8952;SDS011;4511;50.890;8.054;2023-08-31T04:24:52;6.67;;;5.20;;
8952;SDS011;4511;50.890;8.054;2023-08-31T04:27:19;9.80;;;5.40;;
8952;SDS011;4511;50.890;8.054;2023-08-31T04:29:46;7.93;;;5.97;;
8952;SDS011;4511;50.890;8.054;2023-08-31T04:32:13;7.97;;;5.77;;
8952;SDS011;4511;50.890;8.054;2023-08-31T04:34:41;8.87;;;5.93;;
8952;SDS011;4511;50.890;8.054;2023-08-31T04:37:08;12.03;;;6.07;;
8952;SDS011;4511;50.890;8.054;2023-08-31T04:39:34;7.20;;;5.40;;
8952;SDS011;4511;50.890;8.054;2023-08-31T04:42:01;7.83;;;5.53;;
8952;SDS011;4511;50.890;8.054;2023-08-31T04:44:28;6.87;;;5.47;;
8952;SDS011;4511;50.890;8.054;2023-08-31T04:46:55;5.97;;;5.37;;
8952;SDS011;4511;50.890;8.054;2023-08-31T04:49:22;8.30;;;5.17;;
8952;SDS011;4511;50.890;8.054;2023-08-31T04:51:50;7.73;;;5.10;;
8952;SDS011;4511;50.890;8.054;2023-08-31T04:54:16;5.87;;;5.20;;
8952;SDS011;4511;50.890;8.054;2023-08-31T04:56:43;7.80;;;5.07;;
8952;SDS011;4511;50.890;8.054;2023-08-31T04:59:10;7.77;;;5.70;;
8952;SDS011;4511;50.890;8.054;2023-08-31T05:01:37;6.20;;;5.30;;
8952;SDS011;4511;50.890;8.054;2023-08-31T05:04:04;6.43;;;5.17;;
8952;SDS011;4511;50.890;8.054;2023-08-31T05:06:31;7.63;;;4.60;;
8952;SDS011;4511;50.890;8.054;2023-08-31T05:08:59;5.93;;;4.83;;
8952;SDS011;4511;50.890;8.054;2023-08-31T05:11:27;6.77;;;5.87;;
8952;SDS011;4511;50.890;8.054;2023-08-31T05:13:55;5.93;;;5.00;;
8952;SDS011;4511;50.890;8.054;2023-08-31T05:16:21;8.70;;;5.40;;
8952;SDS011;4511;50.890;8.054;2023-08-31T05:18:48;6.23;;;5.10;;
8952;SDS011;4511;50.890;8.054;2023-08-31T05:21:15;9.17;;;5.07;;
8952;SDS011;4511;50.890;8.054;2023-08-31T05:23:42;5.97;;;5.37;;
8952;SDS011;4511;50.890;8.054;2023-08-31T05:26:10;7.13;;;5.17;;
8952;SDS011;4511;50.890;8.054;2023-08-31T05:28:39;8.43;;;4.87;;
8952;SDS011;4511;50.890;8.054;2023-08-31T05:31:05;6.17;;;5.13;;
8952;SDS011;4511;50.890;8.054;2023-08-31T05:33:32;5.80;;;4.83;;
8952;SDS011;4511;50.890;8.054;2023-08-31T05:36:00;7.60;;;5.20;;
8952;SDS011;4511;50.890;8.054;2023-08-31T05:38:28;8.00;;;5.43;;
8952;SDS011;4511;50.890;8.054;2023-08-31T05:41:02;6.90;;;5.07;;
8952;SDS011;4511;50.890;8.054;2023-08-31T05:43:32;7.57;;;5.10;;
8952;SDS011;4511;50.890;8.054;2023-08-31T05:45:59;9.23;;;5.57;;
8952;SDS011;4511;50.890;8.054;2023-08-31T05:48:26;6.03;;;4.93;;
8952;SDS011;4511;50.890;8.054;2023-08-31T05:50:53;8.00;;;5.60;;
8952;SDS011;4511;50.890;8.054;2023-08-31T05:53:21;7.73;;;5.43;;
8952;SDS011;4511;50.890;8.054;2023-08-31T05:55:47;5.50;;;5.03;;
8952;SDS011;4511;50.890;8.054;2023-08-31T05:58:14;5.83;;;5.30;;
8952;SDS011;4511;50.890;8.054;2023-08-31T06:00:42;6.30;;;5.13;;
8952;SDS011;4511;50.890;8.054;2023-08-31T06:03:09;6.20;;;5.70;;
8952;SDS011;4511;50.890;8.054;2023-08-31T06:05:36;6.20;;;5.60;;
8952;SDS011;4511;50.890;8.054;2023-08-31T06:08:03;9.20;;;5.53;;
8952;SDS011;4511;50.890;8.054;2023-08-31T06:10:30;6.93;;;5.53;;
8952;SDS011;4511;50.890;8.054;2023-08-31T06:12:57;6.00;;;5.40;;
8952;SDS011;4511;50.890;8.054;2023-08-31T06:15:24;7.23;;;5.10;;
8952;SDS011;4511;50.890;8.054;2023-08-31T06:17:52;8.67;;;5.57;;
8952;SDS011;4511;50.890;8.054;2023-08-31T06:20:19;8.83;;;5.63;;
8952;SDS011;4511;50.890;8.054;2023-08-31T06:22:45;7.27;;;5.50;;
8952;SDS011;4511;50.890;8.054;2023-08-31T06:25:12;7.90;;;5.33;;
8952;SDS011;4511;50.890;8.054;2023-08-31T06:27:41;6.53;;;5.37;;
8952;SDS011;4511;50.890;8.054;2023-08-31T06:30:09;7.33;;;6.40;;
8952;SDS011;4511;50.890;8.054;2023-08-31T06:32:40;6.60;;;6.00;;
8952;SDS011;4511;50.890;8.054;2023-08-31T06:35:09;7.07;;;6.20;;
8952;SDS011;4511;50.890;8.054;2023-08-31T06:37:36;9.40;;;6.27;;
8952;SDS011;4511;50.890;8.054;2023-08-31T06:40:04;7.13;;;5.97;;
8952;SDS011;4511;50.890;8.054;2023-08-31T06:42:31;8.30;;;6.30;;
8952;SDS011;4511;50.890;8.054;2023-08-31T06:44:58;7.30;;;6.10;;
8952;SDS011;4511;50.890;8.054;2023-08-31T06:47:25;8.53;;;6.23;;
8952;SDS011;4511;50.890;8.054;2023-08-31T06:49:52;8.10;;;6.67;;
8952;SDS011;4511;50.890;8.054;2023-08-31T06:52:20;8.13;;;5.80;;
8952;SDS011;4511;50.890;8.054;2023-08-31T06:54:47;6.67;;;5.40;;
8952;SDS011;4511;50.890;8.054;2023-08-31T06:57:13;6.73;;;6.00;;
8952;SDS011;4511;50.890;8.054;2023-08-31T06:59:40;7.40;;;6.53;;
8952;SDS011;4511;50.890;8.054;2023-08-31T07:02:09;7.60;;;6.03;;
8952;SDS011;4511;50.890;8.054;2023-08-31T07:04:36;6.27;;;5.67;;
8952;SDS011;4511;50.890;8.054;2023-08-31T07:07:03;7.47;;;5.93;;
8952;SDS011;4511;50.890;8.054;2023-08-31T07:09:32;6.23;;;5.30;;
8952;SDS011;4511;50.890;8.054;2023-08-31T07:11:58;7.60;;;5.47;;
8952;SDS011;4511;50.890;8.054;2023-08-31T07:14:26;7.70;;;5.27;;
8952;SDS011;4511;50.890;8.054;2023-08-31T07:16:53;6.47;;;5.77;;
8952;SDS011;4511;50.890;8.054;2023-08-31T07:19:19;9.43;;;6.67;;
8952;SDS011;4511;50.890;8.054;2023-08-31T07:21:46;12.43;;;6.63;;
8952;SDS011;4511;50.890;8.054;2023-08-31T07:24:13;8.87;;;6.40;;
8952;SDS011;4511;50.890;8.054;2023-08-31T07:26:41;6.30;;;5.70;;
8952;SDS011;4511;50.890;8.054;2023-08-31T07:29:08;8.97;;;6.40;;
8952;SDS011;4511;50.890;8.054;2023-08-31T07:31:35;8.03;;;6.07;;
8952;SDS011;4511;50.890;8.054;2023-08-31T07:34:02;8.63;;;6.13;;
8952;SDS011;4511;50.890;8.054;2023-08-31T07:36:29;7.23;;;6.10;;
8952;SDS011;4511;50.890;8.054;2023-08-31T07:38:55;8.53;;;5.57;;
8952;SDS011;4511;50.890;8.054;2023-08-31T07:41:22;6.80;;;5.93;;
8952;SDS011;4511;50.890;8.054;2023-08-31T07:43:51;7.63;;;6.90;;
8952;SDS011;4511;50.890;8.054;2023-08-31T07:46:17;6.77;;;6.03;;
8952;SDS011;4511;50.890;8.054;2023-08-31T07:48:45;7.73;;;6.60;;
8952;SDS011;4511;50.890;8.054;2023-08-31T07:51:15;7.20;;;6.50;;
8952;SDS011;4511;50.890;8.054;2023-08-31T07:53:48;7.00;;;6.40;;
8952;SDS011;4511;50.890;8.054;2023-08-31T07:56:14;7.27;;;6.00;;
8952;SDS011;4511;50.890;8.054;2023-08-31T07:58:42;8.03;;;6.67;;
8952;SDS011;4511;50.890;8.054;2023-08-31T08:01:10;9.20;;;6.40;;
8952;SDS011;4511;50.890;8.054;2023-08-31T08:03:36;7.63;;;6.70;;
8952;SDS011;4511;50.890;8.054;2023-08-31T08:06:03;7.17;;;6.47;;
8952;SDS011;4511;50.890;8.054;2023-08-31T08:08:30;9.63;;;7.17;;
8952;SDS011;4511;50.890;8.054;2023-08-31T08:10:56;7.83;;;6.13;;
8952;SDS011;4511;50.890;8.054;2023-08-31T08:13:24;7.03;;;6.07;;
8952;SDS011;4511;50.890;8.054;2023-08-31T08:15:51;6.97;;;6.23;;
8952;SDS011;4511;50.890;8.054;2023-08-31T08:18:20;9.17;;;6.90;;
8952;SDS011;4511;50.890;8.054;2023-08-31T08:20:47;10.80;;;7.07;;
8952;SDS011;4511;50.890;8.054;2023-08-31T08:23:15;7.47;;;6.60;;
8952;SDS011;4511;50.890;8.054;2023-08-31T08:25:41;8.83;;;7.93;;
8952;SDS011;4511;50.890;8.054;2023-08-31T08:28:09;7.93;;;7.07;;
8952;SDS011;4511;50.890;8.054;2023-08-31T08:30:36;9.33;;;6.80;;
8952;SDS011;4511;50.890;8.054;2023-08-31T08:33:02;8.30;;;6.70;;
8952;SDS011;4511;50.890;8.054;2023-08-31T08:35:33;7.80;;;7.10;;
8952;SDS011;4511;50.890;8.054;2023-08-31T08:38:00;8.60;;;7.00;;
8952;SDS011;4511;50.890;8.054;2023-08-31T08:40:26;7.30;;;6.60;;
8952;SDS011;4511;50.890;8.054;2023-08-31T08:42:53;7.80;;;7.10;;
8952;SDS011;4511;50.890;8.054;2023-08-31T08:45:23;7.60;;;6.90;;
8952;SDS011;4511;50.890;8.054;2023-08-31T08:47:51;8.17;;;7.33;;
8952;SDS011;4511;50.890;8.054;2023-08-31T08:50:19;7.97;;;7.33;;
8952;SDS011;4511;50.890;8.054;2023-08-31T08:52:49;6.90;;;6.23;;
8952;SDS011;4511;50.890;8.054;2023-08-31T08:55:18;7.50;;;6.70;;
8952;SDS011;4511;50.890;8.054;2023-08-31T08:57:45;8.03;;;7.20;;
8952;SDS011;4511;50.890;8.054;2023-08-31T09:00:13;7.70;;;7.00;;
8952;SDS011;4511;50.890;8.054;2023-08-31T09:02:40;8.03;;;6.03;;
8952;SDS011;4511;50.890;8.054;2023-08-31T09:05:07;7.60;;;6.67;;
8952;SDS011;4511;50.890;8.054;2023-08-31T09:07:35;6.97;;;6.37;;
8952;SDS011;4511;50.890;8.054;2023-08-31T09:10:04;6.33;;;5.77;;
8952;SDS011;4511;50.890;8.054;2023-08-31T09:12:31;7.30;;;5.73;;
8952;SDS011;4511;50.890;8.054;2023-08-31T09:15:04;7.23;;;5.27;;
8952;SDS011;4511;50.890;8.054;2023-08-31T09:17:38;6.77;;;5.13;;
8952;SDS011;4511;50.890;8.054;2023-08-31T09:20:07;5.70;;;5.07;;
8952;SDS011;4511;50.890;8.054;2023-08-31T09:22:35;5.47;;;4.87;;
8952;SDS011;4511;50.890;8.054;2023-08-31T09:25:02;5.20;;;4.40;;
8952;SDS011;4511;50.890;8.054;2023-08-31T09:27:30;4.33;;;3.93;;
8952;SDS011;4511;50.890;8.054;2023-08-31T09:29:58;6.50;;;4.10;;
8952;SDS011;4511;50.890;8.054;2023-08-31T09:32:25;6.40;;;4.30;;
8952;SDS011;4511;50.890;8.054;2023-08-31T09:34:51;4.00;;;3.43;;
8952;SDS011;4511;50.890;8.054;2023-08-31T09:37:18;4.40;;;3.60;;
8952;SDS011;4511;50.890;8.054;2023-08-31T09:39:45;4.53;;;3.37;;
8952;SDS011;4511;50.890;8.054;2023-08-31T09:42:13;4.20;;;3.40;;
8952;SDS011;4511;50.890;8.054;2023-08-31T09:44:40;3.57;;;3.17;;
8952;SDS011;4511;50.890;8.054;2023-08-31T09:47:09;4.77;;;3.00;;
8952;SDS011;4511;50.890;8.054;2023-08-31T09:49:36;3.33;;;2.93;;
8952;SDS011;4511;50.890;8.054;2023-08-31T09:52:04;3.07;;;2.50;;
8952;SDS011;4511;50.890;8.054;2023-08-31T09:54:32;5.37;;;2.57;;
8952;SDS011;4511;50.890;8.054;2023-08-31T09:57:02;3.00;;;2.50;;
8952;SDS011;4511;50.890;8.054;2023-08-31T09:59:31;5.23;;;2.77;;
8952;SDS011;4511;50.890;8.054;2023-08-31T10:01:59;3.50;;;2.90;;
8952;SDS011;4511;50.890;8.054;2023-08-31T10:04:29;4.73;;;2.43;;
8952;SDS011;4511;50.890;8.054;2023-08-31T10:06:58;5.20;;;2.40;;
8952;SDS011;4511;50.890;8.054;2023-08-31T10:09:25;3.10;;;2.50;;
8952;SDS011;4511;50.890;8.054;2023-08-31T10:11:54;2.90;;;2.60;;
8952;SDS011;4511;50.890;8.054;2023-08-31T10:14:20;2.63;;;2.33;;
8952;SDS011;4511;50.890;8.054;2023-08-31T10:16:49;3.53;;;2.50;;
8952;SDS011;4511;50.890;8.054;2023-08-31T10:19:18;2.80;;;2.10;;
8952;SDS011;4511;50.890;8.054;2023-08-31T10:21:45;5.60;;;2.00;;
8952;SDS011;4511;50.890;8.054;2023-08-31T10:24:11;3.97;;;2.20;;
8952;SDS011;4511;50.890;8.054;2023-08-31T10:26:38;2.80;;;2.10;;
8952;SDS011;4511;50.890;8.054;2023-08-31T10:29:05;4.17;;;2.20;;
8952;SDS011;4511;50.890;8.054;2023-08-31T10:31:32;4.47;;;2.40;;
8952;SDS011;4511;50.890;8.054;2023-08-31T10:34:02;2.87;;;2.30;;
8952;SDS011;4511;50.890;8.054;2023-08-31T10:36:37;4.13;;;2.23;;
8952;SDS011;4511;50.890;8.054;2023-08-31T10:39:06;5.13;;;2.40;;
8952;SDS011;4511;50.890;8.054;2023-08-31T10:41:37;2.40;;;2.10;;
8952;SDS011;4511;50.890;8.054;2023-08-31T10:44:17;2.43;;;2.00;;
8952;SDS011;4511;50.890;8.054;2023-08-31T10:46:45;3.53;;;2.00;;
8952;SDS011;4511;50.890;8.054;2023-08-31T10:49:14;3.97;;;2.13;;
8952;SDS011;4511;50.890;8.054;2023-08-31T10:51:42;4.70;;;2.40;;
8952;SDS011;4511;50.890;8.054;2023-08-31T10:54:23;4.17;;;2.60;;
8952;SDS011;4511;50.890;8.054;2023-08-31T10:56:51;2.40;;;2.10;;
8952;SDS011;4511;50.890;8.054;2023-08-31T10:59:20;4.50;;;2.13;;
8952;SDS011;4511;50.890;8.054;2023-08-31T11:01:53;6.13;;;2.50;;
8952;SDS011;4511;50.890;8.054;2023-08-31T11:06:48;4.83;;;2.20;;
8952;SDS011;4511;50.890;8.054;2023-08-31T11:09:19;2.80;;;2.23;;
8952;SDS011;4511;50.890;8.054;2023-08-31T11:11:48;5.60;;;2.20;;
8952;SDS011;4511;50.890;8.054;2023-08-31T11:14:14;4.10;;;2.13;;
8952;SDS011;4511;50.890;8.054;2023-08-31T11:16:42;4.37;;;1.97;;
8952;SDS011;4511;50.890;8.054;2023-08-31T11:19:10;4.67;;;2.37;;
8952;SDS011;4511;50.890;8.054;2023-08-31T11:21:36;3.27;;;2.03;;
8952;SDS011;4511;50.890;8.054;2023-08-31T11:24:04;5.73;;;2.27;;
8952;SDS011;4511;50.890;8.054;2023-08-31T11:26:31;6.03;;;2.27;;
8952;SDS011;4511;50.890;8.054;2023-08-31T11:29:00;2.73;;;1.90;;
8952;SDS011;4511;50.890;8.054;2023-08-31T11:31:31;2.60;;;1.73;;
8952;SDS011;4511;50.890;8.054;2023-08-31T11:33:58;3.47;;;1.83;;
8952;SDS011;4511;50.890;8.054;2023-08-31T11:36:25;4.63;;;1.90;;
8952;SDS011;4511;50.890;8.054;2023-08-31T11:38:52;2.40;;;1.77;;
8952;SDS011;4511;50.890;8.054;2023-08-31T11:41:18;1.80;;;1.60;;
8952;SDS011;4511;50.890;8.054;2023-08-31T11:43:46;4.37;;;1.90;;
8952;SDS011;4511;50.890;8.054;2023-08-31T11:46:15;3.20;;;1.73;;
8952;SDS011;4511;50.890;8.054;2023-08-31T11:48:42;1.77;;;1.67;;
8952;SDS011;4511;50.890;8.054;2023-08-31T11:51:10;3.07;;;1.90;;
8952;SDS011;4511;50.890;8.054;2023-08-31T11:53:37;3.83;;;1.70;;
8952;SDS011;4511;50.890;8.054;2023-08-31T11:56:04;3.20;;;1.90;;
8952;SDS011;4511;50.890;8.054;2023-08-31T11:58:31;2.10;;;1.40;;
8952;SDS011;4511;50.890;8.054;2023-08-31T12:00:58;2.87;;;1.60;;
8952;SDS011;4511;50.890;8.054;2023-08-31T12:03:27;3.23;;;1.80;;
8952;SDS011;4511;50.890;8.054;2023-08-31T12:05:54;4.70;;;1.90;;
8952;SDS011;4511;50.890;8.054;2023-08-31T12:08:24;2.13;;;1.80;;
8952;SDS011;4511;50.890;8.054;2023-08-31T12:10:52;3.93;;;1.90;;
8952;SDS011;4511;50.890;8.054;2023-08-31T12:13:19;2.10;;;1.70;;
8952;SDS011;4511;50.890;8.054;2023-08-31T12:15:47;3.80;;;1.97;;
8952;SDS011;4511;50.890;8.054;2023-08-31T12:18:18;3.20;;;1.70;;
8952;SDS011;4511;50.890;8.054;2023-08-31T12:20:47;2.30;;;1.97;;
8952;SDS011;4511;50.890;8.054;2023-08-31T12:23:16;5.27;;;2.30;;
8952;SDS011;4511;50.890;8.054;2023-08-31T12:25:46;3.40;;;2.27;;
8952;SDS011;4511;50.890;8.054;2023-08-31T12:28:14;3.03;;;1.80;;
8952;SDS011;4511;50.890;8.054;2023-08-31T12:30:41;4.20;;;1.90;;
8952;SDS011;4511;50.890;8.054;2023-08-31T12:33:09;2.80;;;1.80;;
8952;SDS011;4511;50.890;8.054;2023-08-31T12:35:36;2.63;;;1.80;;
8952;SDS011;4511;50.890;8.054;2023-08-31T12:38:04;2.20;;;1.60;;
8952;SDS011;4511;50.890;8.054;2023-08-31T12:40:31;4.53;;;1.83;;
8952;SDS011;4511;50.890;8.054;2023-08-31T12:42:58;2.40;;;1.90;;
8952;SDS011;4511;50.890;8.054;2023-08-31T12:45:25;2.87;;;2.00;;
8952;SDS011;4511;50.890;8.054;2023-08-31T12:47:52;2.23;;;1.83;;
8952;SDS011;4511;50.890;8.054;2023-08-31T12:50:18;2.87;;;1.90;;
8952;SDS011;4511;50.890;8.054;2023-08-31T12:52:45;5.20;;;1.80;;
8952;SDS011;4511;50.890;8.054;2023-08-31T12:55:14;2.77;;;1.83;;
8952;SDS011;4511;50.890;8.054;2023-08-31T12:57:41;2.77;;;1.70;;
8952;SDS011;4511;50.890;8.054;2023-08-31T13:00:08;1.90;;;1.67;;
8952;SDS011;4511;50.890;8.054;2023-08-31T13:02:37;2.63;;;2.00;;
8952;SDS011;4511;50.890;8.054;2023-08-31T13:05:04;3.17;;;1.83;;
8952;SDS011;4511;50.890;8.054;2023-08-31T13:07:32;1.80;;;1.67;;
8952;SDS011;4511;50.890;8.054;2023-08-31T13:09:59;5.67;;;2.10;;
8952;SDS011;4511;50.890;8.054;2023-08-31T13:12:27;3.53;;;1.93;;
8952;SDS011;4511;50.890;8.054;2023-08-31T13:14:54;4.27;;;1.80;;
8952;SDS011;4511;50.890;8.054;2023-08-31T13:17:21;2.77;;;1.93;;
8952;SDS011;4511;50.890;8.054;2023-08-31T13:19:51;3.83;;;2.03;;
8952;SDS011;4511;50.890;8.054;2023-08-31T13:22:18;3.57;;;1.80;;
8952;SDS011;4511;50.890;8.054;2023-08-31T13:24:45;2.63;;;1.87;;
8952;SDS011;4511;50.890;8.054;2023-08-31T13:27:12;4.43;;;2.33;;
8952;SDS011;4511;50.890;8.054;2023-08-31T13:29:40;3.67;;;1.90;;
8952;SDS011;4511;50.890;8.054;2023-08-31T13:32:07;3.10;;;1.87;;
8952;SDS011;4511;50.890;8.054;2023-08-31T13:34:34;1.80;;;1.70;;
8952;SDS011;4511;50.890;8.054;2023-08-31T13:37:01;3.13;;;2.00;;
8952;SDS011;4511;50.890;8.054;2023-08-31T13:39:29;2.23;;;1.93;;
8952;SDS011;4511;50.890;8.054;2023-08-31T13:41:56;2.90;;;2.00;;
8952;SDS011;4511;50.890;8.054;2023-08-31T13:44:23;2.60;;;1.73;;
8952;SDS011;4511;50.890;8.054;2023-08-31T13:46:51;1.70;;;1.53;;
8952;SDS011;4511;50.890;8.054;2023-08-31T13:49:17;2.97;;;1.70;;
8952;SDS011;4511;50.890;8.054;2023-08-31T13:51:44;2.13;;;1.70;;
8952;SDS011;4511;50.890;8.054;2023-08-31T13:54:11;1.70;;;1.60;;
8952;SDS011;4511;50.890;8.054;2023-08-31T13:56:38;2.87;;;1.60;;
8952;SDS011;4511;50.890;8.054;2023-08-31T13:59:05;1.67;;;1.57;;
8952;SDS011;4511;50.890;8.054;2023-08-31T14:01:31;1.40;;;1.40;;
8952;SDS011;4511;50.890;8.054;2023-08-31T14:04:00;1.77;;;1.50;;
8952;SDS011;4511;50.890;8.054;2023-08-31T14:06:28;1.73;;;1.50;;
8952;SDS011;4511;50.890;8.054;2023-08-31T14:08:55;1.50;;;1.40;;
8952;SDS011;4511;50.890;8.054;2023-08-31T14:11:22;1.50;;;1.40;;
8952;SDS011;4511;50.890;8.054;2023-08-31T14:13:49;1.90;;;1.67;;
8952;SDS011;4511;50.890;8.054;2023-08-31T14:16:17;4.43;;;1.70;;
8952;SDS011;4511;50.890;8.054;2023-08-31T14:18:44;5.17;;;2.73;;
8952;SDS011;4511;50.890;8.054;2023-08-31T14:21:15;3.27;;;2.27;;
8952;SDS011;4511;50.890;8.054;2023-08-31T14:23:42;2.97;;;2.00;;
8952;SDS011;4511;50.890;8.054;2023-08-31T14:26:10;3.87;;;2.13;;
8952;SDS011;4511;50.890;8.054;2023-08-31T14:28:38;3.37;;;1.97;;
8952;SDS011;4511;50.890;8.054;2023-08-31T14:31:05;4.03;;;2.03;;
8952;SDS011;4511;50.890;8.054;2023-08-31T14:33:32;2.40;;;1.90;;
8952;SDS011;4511;50.890;8.054;2023-08-31T14:35:59;1.97;;;1.63;;
8952;SDS011;4511;50.890;8.054;2023-08-31T14:38:27;2.43;;;1.70;;
8952;SDS011;4511;50.890;8.054;2023-08-31T14:40:54;2.10;;;1.90;;
8952;SDS011;4511;50.890;8.054;2023-08-31T14:43:21;4.33;;;2.10;;
8952;SDS011;4511;50.890;8.054;2023-08-31T14:45:47;2.13;;;1.97;;
8952;SDS011;4511;50.890;8.054;2023-08-31T14:48:15;2.47;;;2.00;;
8952;SDS011;4511;50.890;8.054;2023-08-31T14:50:42;2.53;;;2.07;;
8952;SDS011;4511;50.890;8.054;2023-08-31T14:53:09;2.80;;;2.20;;
8952;SDS011;4511;50.890;8.054;2023-08-31T14:55:37;4.40;;;2.47;;
8952;SDS011;4511;50.890;8.054;2023-08-31T14:58:04;4.43;;;2.30;;
8952;SDS011;4511;50.890;8.054;2023-08-31T15:00:31;5.20;;;2.70;;
8952;SDS011;4511;50.890;8.054;2023-08-31T15:02:58;3.83;;;2.53;;
8952;SDS011;4511;50.890;8.054;2023-08-31T15:05:25;2.83;;;2.20;;
8952;SDS011;4511;50.890;8.054;2023-08-31T15:07:55;4.03;;;2.23;;
8952;SDS011;4511;50.890;8.054;2023-08-31T15:10:22;4.87;;;2.33;;
8952;SDS011;4511;50.890;8.054;2023-08-31T15:12:50;2.83;;;1.97;;
8952;SDS011;4511;50.890;8.054;2023-08-31T15:15:20;4.00;;;2.17;;
8952;SDS011;4511;50.890;8.054;2023-08-31T15:17:47;3.20;;;2.10;;